createdAt,value
2022-09-28T00:01:24.818Z,96.21
2022-09-28T00:03:53.997Z,95.87
2022-09-28T00:06:24.444Z,96.11
2022-09-28T00:08:51.149Z,96.27
2022-09-28T00:11:20.577Z,96.48
2022-09-28T00:13:53.025Z,96.49
2022-09-28T00:16:24.027Z,96.30
2022-09-28T00:18:51.342Z,96.36
2022-09-28T00:21:23.206Z,96.62
2022-09-28T00:24:12.852Z,96.75
2022-09-28T00:26:41.749Z,96.74
2022-09-28T00:29:16.344Z,96.72
2022-09-28T00:31:43.068Z,96.64
2022-09-28T00:34:09.599Z,96.49
2022-09-28T00:36:36.159Z,96.86
2022-09-28T00:39:07.723Z,96.80
2022-09-28T00:41:34.903Z,96.63
2022-09-28T00:44:26.236Z,97.00
2022-09-28T00:47:01.924Z,96.85
2022-09-28T00:49:41.768Z,96.81
2022-09-28T00:52:12.644Z,96.84
2022-09-28T00:54:39.843Z,96.97
2022-09-28T00:57:06.330Z,97.17
2022-09-28T00:59:33.686Z,97.05
2022-09-28T01:02:01.281Z,97.42
2022-09-28T01:04:29.999Z,96.91
2022-09-28T01:06:57.833Z,96.83
2022-09-28T01:09:25.864Z,97.17
2022-09-28T01:11:52.249Z,96.86
2022-09-28T01:14:20.681Z,97.00
2022-09-28T01:16:59.933Z,97.11
2022-09-28T01:19:32.049Z,97.06
2022-09-28T01:22:14.248Z,97.36
2022-09-28T01:24:47.446Z,97.17
2022-09-28T01:27:22.685Z,97.23
2022-09-28T01:29:59.520Z,97.49
2022-09-28T01:32:42.587Z,97.18
2022-09-28T01:35:39.418Z,97.04
2022-09-28T01:38:21.603Z,97.33
2022-09-28T01:40:49.191Z,97.26
2022-09-28T01:43:25.254Z,97.48
2022-09-28T01:45:55.698Z,97.22
2022-09-28T01:48:37.122Z,97.31
2022-09-28T01:51:08.134Z,97.22
2022-09-28T01:53:41.692Z,97.12
2022-09-28T01:56:15.681Z,97.30
2022-09-28T01:59:06.431Z,97.33
2022-09-28T02:02:02.163Z,97.27
2022-09-28T02:04:50.610Z,97.43
2022-09-28T02:07:51.366Z,97.26
2022-09-28T02:10:25.532Z,97.30
2022-09-28T02:12:57.579Z,97.52
2022-09-28T02:15:33.877Z,97.45
2022-09-28T02:18:00.397Z,97.61
2022-09-28T02:20:28.475Z,97.68
2022-09-28T02:22:58.085Z,97.52
2022-09-28T02:25:55.395Z,97.57
2022-09-28T02:28:21.899Z,97.77
2022-09-28T02:30:48.301Z,97.69
2022-09-28T02:33:23.148Z,97.81
2022-09-28T02:35:49.561Z,97.66
2022-09-28T02:38:16.275Z,97.64
2022-09-28T02:40:48.335Z,97.66
2022-09-28T02:43:22.237Z,98.02
2022-09-28T02:46:29.863Z,98.05
2022-09-28T02:49:21.917Z,98.06
2022-09-28T02:51:54.593Z,97.99
2022-09-28T02:55:12.977Z,97.89
2022-09-28T02:57:50.116Z,97.87
2022-09-28T03:00:22.800Z,98.04
2022-09-28T03:03:08.837Z,97.87
2022-09-28T03:06:03.340Z,97.99
2022-09-28T03:08:35.738Z,98.05
2022-09-28T03:11:15.257Z,98.05
2022-09-28T03:13:42.535Z,98.14
2022-09-28T03:16:20.151Z,97.93
2022-09-28T03:18:46.745Z,98.30
2022-09-28T03:21:14.282Z,98.11
2022-09-28T03:23:41.783Z,98.17
2022-09-28T03:26:10.823Z,98.16
2022-09-28T03:28:37.393Z,98.13
2022-09-28T03:31:03.890Z,98.02
2022-09-28T03:33:30.386Z,98.28
2022-09-28T03:35:56.809Z,98.15
2022-09-28T03:38:23.269Z,98.13
2022-09-28T03:40:57.339Z,98.24
2022-09-28T03:43:24.778Z,98.33
2022-09-28T03:46:01.521Z,98.02
2022-09-28T03:48:32.557Z,97.64
2022-09-28T03:51:01.381Z,97.39
2022-09-28T03:53:29.622Z,97.44
2022-09-28T03:55:56.765Z,97.45
2022-09-28T03:58:23.200Z,97.55
2022-09-28T04:00:50.292Z,97.56
2022-09-28T04:03:16.807Z,97.74
2022-09-28T04:05:50.705Z,97.83
2022-09-28T04:08:17.730Z,97.80
2022-09-28T04:10:44.381Z,97.70
2022-09-28T04:13:10.931Z,97.62
2022-09-28T04:15:38.475Z,97.80
2022-09-28T04:18:12.395Z,98.35
2022-09-28T04:20:41.019Z,98.53
2022-09-28T04:23:07.474Z,99.06
2022-09-28T04:25:33.852Z,99.01
2022-09-28T04:28:18.863Z,98.77
2022-09-28T04:30:47.330Z,98.65
2022-09-28T04:33:14.055Z,98.83
2022-09-28T04:35:40.695Z,98.80
2022-09-28T04:38:07.023Z,98.67
2022-09-28T04:40:33.471Z,98.58
2022-09-28T04:42:59.884Z,98.58
2022-09-28T04:45:26.955Z,98.56
2022-09-28T04:47:53.791Z,98.60
2022-09-28T04:50:20.594Z,98.60
2022-09-28T04:52:47.028Z,98.68
2022-09-28T04:55:14.381Z,98.64
2022-09-28T04:57:41.070Z,98.57
2022-09-28T05:00:08.922Z,98.69
2022-09-28T05:02:35.452Z,98.65
2022-09-28T05:05:02.008Z,98.71
2022-09-28T05:07:29.365Z,98.55
2022-09-28T05:09:55.906Z,98.39
2022-09-28T05:12:22.371Z,98.20
2022-09-28T05:14:48.776Z,98.02
2022-09-28T05:17:15.262Z,98.14
2022-09-28T05:19:41.714Z,98.14
2022-09-28T05:22:11.426Z,98.18
2022-09-28T05:24:38.779Z,98.36
2022-09-28T05:27:05.203Z,98.45
2022-09-28T05:29:32.615Z,98.69
2022-09-28T05:32:01.496Z,98.84
2022-09-28T05:34:28.227Z,98.95
2022-09-28T05:36:54.637Z,98.96
2022-09-28T05:39:21.067Z,98.79
2022-09-28T05:41:47.409Z,98.89
2022-09-28T05:44:13.907Z,99.21
2022-09-28T05:46:40.420Z,99.14
2022-09-28T05:49:06.775Z,99.10
2022-09-28T05:51:35.641Z,98.99
2022-09-28T05:54:05.926Z,99.09
2022-09-28T05:56:33.056Z,99.07
2022-09-28T05:58:59.534Z,98.98
2022-09-28T06:01:26.031Z,98.89
2022-09-28T06:03:52.509Z,98.87
2022-09-28T06:06:18.907Z,99.02
2022-09-28T06:08:46.286Z,98.85
2022-09-28T06:11:12.796Z,98.75
2022-09-28T06:13:40.429Z,98.70
2022-09-28T06:16:11.424Z,98.90
2022-09-28T06:18:37.928Z,98.50
2022-09-28T06:21:05.833Z,98.43
2022-09-28T06:23:32.263Z,98.43
2022-09-28T06:25:59.647Z,98.40
2022-09-28T06:28:26.871Z,97.38
2022-09-28T06:30:54.043Z,97.73
2022-09-28T06:33:20.670Z,97.27
2022-09-28T06:35:47.139Z,97.21
2022-09-28T06:38:13.663Z,96.85
2022-09-28T06:40:40.095Z,94.80
2022-09-28T06:43:11.205Z,94.96
2022-09-28T06:45:38.639Z,93.88
2022-09-28T06:48:06.406Z,92.58
2022-09-28T06:50:38.444Z,93.01
2022-09-28T06:53:12.040Z,91.17
2022-09-28T06:55:39.810Z,90.99
2022-09-28T06:58:09.684Z,91.08
2022-09-28T07:00:37.392Z,89.03
2022-09-28T07:03:06.658Z,89.70
2022-09-28T07:05:36.663Z,88.93
2022-09-28T07:08:04.502Z,87.82
2022-09-28T07:10:31.975Z,88.61
2022-09-28T07:13:02.661Z,87.45
2022-09-28T07:15:30.120Z,87.84
2022-09-28T07:18:02.849Z,87.99
2022-09-28T07:20:31.737Z,88.99
2022-09-28T07:23:12.921Z,86.56
2022-09-28T07:25:47.960Z,86.83
2022-09-28T07:28:15.160Z,84.38
2022-09-28T07:30:44.751Z,82.85
2022-09-28T07:33:14.431Z,77.78
2022-09-28T07:35:42.311Z,73.63
2022-09-28T07:38:10.743Z,66.56
2022-09-28T07:40:55.928Z,66.00
2022-09-28T07:43:22.523Z,68.08
2022-09-28T07:45:52.197Z,72.21
2022-09-28T07:48:19.202Z,74.09
2022-09-28T07:50:53.632Z,69.38
2022-09-28T07:53:22.858Z,71.11
2022-09-28T07:55:57.524Z,70.43
2022-09-28T07:58:23.941Z,70.24
2022-09-28T08:00:50.807Z,69.88
2022-09-28T08:03:18.932Z,68.32
2022-09-28T08:05:46.750Z,64.93
2022-09-28T08:08:13.885Z,68.42
2022-09-28T08:10:46.556Z,64.73
2022-09-28T08:13:15.160Z,67.59
2022-09-28T08:15:42.556Z,63.56
2022-09-28T08:18:09.474Z,60.46
2022-09-28T08:20:54.643Z,55.41
2022-09-28T08:23:21.093Z,58.92
2022-09-28T08:25:52.529Z,51.77
2022-09-28T08:28:18.984Z,52.86
2022-09-28T08:30:46.673Z,49.64
2022-09-28T08:33:14.168Z,47.39
2022-09-28T08:35:43.519Z,48.61
2022-09-28T08:38:10.077Z,54.67
2022-09-28T08:41:09.198Z,49.55
2022-09-28T08:44:02.238Z,51.30
2022-09-28T08:46:45.456Z,49.95
2022-09-28T08:49:26.471Z,53.20
2022-09-28T08:52:03.429Z,55.70
2022-09-28T08:54:51.737Z,56.39
2022-09-28T08:57:25.274Z,57.58
2022-09-28T08:59:54.103Z,62.68
2022-09-28T09:02:33.991Z,61.33
2022-09-28T09:05:03.802Z,62.89
2022-09-28T09:07:39.910Z,65.85
2022-09-28T09:10:33.871Z,65.87
2022-09-28T09:13:28.867Z,65.60
2022-09-28T09:16:17.007Z,67.09
2022-09-28T09:18:54.316Z,66.35
2022-09-28T09:21:41.869Z,68.37
2022-09-28T09:24:24.986Z,71.42
2022-09-28T09:27:04.190Z,71.38
2022-09-28T09:29:54.300Z,74.21
2022-09-28T09:32:30.658Z,73.19
2022-09-28T09:35:09.095Z,73.49
2022-09-28T09:38:02.719Z,76.62
2022-09-28T09:40:37.813Z,74.19
2022-09-28T09:43:19.646Z,77.90
2022-09-28T09:45:56.871Z,73.10
2022-09-28T09:48:31.337Z,72.03
2022-09-28T09:51:02.843Z,75.31
2022-09-28T09:53:45.934Z,71.95
2022-09-28T09:56:15.121Z,71.85
2022-09-28T09:58:48.750Z,70.78
2022-09-28T10:01:20.467Z,66.54
2022-09-28T10:03:48.680Z,61.61
2022-09-28T10:06:19.711Z,62.92
2022-09-28T10:08:50.256Z,55.76
2022-09-28T10:11:31.390Z,51.98
2022-09-28T10:13:57.861Z,53.14
2022-09-28T10:16:24.493Z,51.49
2022-09-28T10:18:50.968Z,48.71
2022-09-28T10:21:21.540Z,44.82
2022-09-28T10:23:53.327Z,41.86
2022-09-28T10:26:25.342Z,41.36
2022-09-28T10:29:04.172Z,48.48
2022-09-28T10:31:49.941Z,47.41
2022-09-28T10:34:23.694Z,51.78
2022-09-28T10:36:56.014Z,47.98
2022-09-28T10:39:46.856Z,49.60
2022-09-28T10:42:20.356Z,51.34
2022-09-28T10:44:55.074Z,50.68
2022-09-28T10:47:24.041Z,50.93
2022-09-28T10:49:51.690Z,48.24
2022-09-28T10:52:41.473Z,47.38
2022-09-28T10:55:32.343Z,49.07
2022-09-28T10:58:00.422Z,53.10
2022-09-28T11:00:41.889Z,54.07
2022-09-28T11:03:25.777Z,54.65
2022-09-28T11:06:08.545Z,53.94
2022-09-28T11:08:38.240Z,52.79
2022-09-28T11:11:10.907Z,55.72
2022-09-28T11:13:52.455Z,57.41
2022-09-28T11:16:28.885Z,58.39
2022-09-28T11:19:05.209Z,60.03
2022-09-28T11:21:41.558Z,60.16
2022-09-28T11:24:23.600Z,61.42
2022-09-28T11:26:53.278Z,61.37
2022-09-28T11:29:30.743Z,60.39
2022-09-28T11:32:03.251Z,61.29
2022-09-28T11:34:58.034Z,61.04
2022-09-28T11:37:43.901Z,59.65
2022-09-28T11:40:47.534Z,62.46
2022-09-28T11:43:20.721Z,60.49
2022-09-28T11:46:08.002Z,61.06
2022-09-28T11:48:44.004Z,60.42
2022-09-28T11:51:21.764Z,61.91
2022-09-28T11:54:20.848Z,60.84
2022-09-28T11:56:49.517Z,61.36
2022-09-28T11:59:26.682Z,61.30
2022-09-28T12:01:57.208Z,63.58
2022-09-28T12:04:31.492Z,63.44
2022-09-28T12:07:13.893Z,65.26
2022-09-28T12:09:49.873Z,64.39
2022-09-28T12:12:31.492Z,65.09
2022-09-28T12:15:04.776Z,65.73
2022-09-28T12:17:38.710Z,61.97
2022-09-28T12:20:17.804Z,60.43
2022-09-28T12:22:55.269Z,53.32
2022-09-28T12:25:23.219Z,56.88
2022-09-28T12:27:57.998Z,55.10
2022-09-28T12:30:25.884Z,58.73
2022-09-28T12:32:58.401Z,60.22
2022-09-28T12:35:58.755Z,57.75
2022-09-28T12:42:00.669Z,61.63
2022-09-28T12:44:43.340Z,62.97
2022-09-28T12:47:47.999Z,59.70
2022-09-28T12:50:39.919Z,59.64
2022-09-28T12:53:32.082Z,60.13
2022-09-28T12:56:11.740Z,58.95
2022-09-28T12:59:00.012Z,57.24
2022-09-28T13:01:38.876Z,54.91
2022-09-28T13:04:35.067Z,52.01
2022-09-28T13:07:25.945Z,50.54
2022-09-28T13:10:17.271Z,48.89
2022-09-28T13:13:02.626Z,49.26
2022-09-28T13:15:42.752Z,51.62
2022-09-28T13:18:29.219Z,49.47
2022-09-28T13:20:58.313Z,47.72
2022-09-28T13:23:34.527Z,48.20
2022-09-28T13:26:17.262Z,48.14
2022-09-28T13:28:46.864Z,48.10
2022-09-28T13:31:19.112Z,53.19
2022-09-28T13:33:46.724Z,53.74
2022-09-28T13:36:25.505Z,52.31
2022-09-28T13:38:53.074Z,50.55
2022-09-28T13:41:40.483Z,52.30
2022-09-28T13:44:22.166Z,51.75
2022-09-28T13:47:10.160Z,49.98
2022-09-28T13:49:42.170Z,50.80
2022-09-28T13:52:26.912Z,51.52
2022-09-28T13:55:12.157Z,48.58
2022-09-28T13:57:46.252Z,47.28
2022-09-28T14:00:38.028Z,47.27
2022-09-28T14:03:19.575Z,48.96
2022-09-28T14:05:53.258Z,48.98
2022-09-28T14:08:34.830Z,46.41
2022-09-28T14:11:36.817Z,47.71
2022-09-28T14:14:11.813Z,46.47
2022-09-28T14:16:40.591Z,46.99
2022-09-28T14:19:16.350Z,46.19
2022-09-28T14:22:19.005Z,46.35
2022-09-28T14:25:17.136Z,47.70
2022-09-28T14:28:06.541Z,46.84
2022-09-28T14:30:41.915Z,46.22
2022-09-28T14:33:28.796Z,46.72
2022-09-28T14:36:04.975Z,47.38
2022-09-28T14:38:54.688Z,50.00
2022-09-28T14:41:30.256Z,47.85
2022-09-28T14:44:08.648Z,51.62
2022-09-28T14:46:36.180Z,52.03
2022-09-28T14:49:25.002Z,52.34
2022-09-28T14:51:51.290Z,52.91
2022-09-28T14:54:21.098Z,50.94
2022-09-28T14:56:53.294Z,50.61
2022-09-28T14:59:25.033Z,50.58
2022-09-28T15:01:55.282Z,48.86
2022-09-28T15:04:26.146Z,50.15
2022-09-28T15:06:52.608Z,52.20
2022-09-28T15:09:31.301Z,53.37
2022-09-28T15:12:04.616Z,52.22
2022-09-28T15:14:35.228Z,53.21
2022-09-28T15:17:09.755Z,54.98
2022-09-28T15:19:51.083Z,55.76
2022-09-28T15:22:18.278Z,58.29
2022-09-28T15:24:53.800Z,57.80
2022-09-28T15:27:22.196Z,58.93
2022-09-28T15:30:15.902Z,57.89
2022-09-28T15:32:42.438Z,61.21
2022-09-28T15:35:14.373Z,63.10
2022-09-28T15:37:40.984Z,65.43
2022-09-28T15:40:14.957Z,67.47
2022-09-28T15:42:41.339Z,68.36
2022-09-28T15:45:13.667Z,69.67
2022-09-28T15:47:41.676Z,70.42
2022-09-28T15:50:22.033Z,71.14
2022-09-28T15:53:01.072Z,72.65
2022-09-28T15:55:37.091Z,73.06
2022-09-28T15:58:14.358Z,73.84
2022-09-28T16:00:41.567Z,74.27
2022-09-28T16:03:08.298Z,74.33
2022-09-28T16:06:05.058Z,74.76
2022-09-28T16:08:48.778Z,74.86
2022-09-28T16:11:26.119Z,75.57
2022-09-28T16:13:56.261Z,75.92
2022-09-28T16:16:29.972Z,75.39
2022-09-28T16:19:00.555Z,75.72
2022-09-28T16:21:44.517Z,75.63
2022-09-28T16:24:21.470Z,74.60
2022-09-28T16:26:54.449Z,75.55
2022-09-28T16:29:32.291Z,75.63
2022-09-28T16:32:33.573Z,76.53
2022-09-28T16:35:21.540Z,78.14
2022-09-28T16:37:55.463Z,78.27
2022-09-28T16:40:22.015Z,79.75
2022-09-28T16:42:49.482Z,80.98
2022-09-28T16:45:21.598Z,83.28
2022-09-28T16:47:51.825Z,83.51
2022-09-28T16:50:20.776Z,84.70
2022-09-28T16:53:09.362Z,85.62
2022-09-28T16:55:41.259Z,86.58
2022-09-28T16:58:08.173Z,86.77
2022-09-28T17:00:34.549Z,87.66
2022-09-28T17:03:00.975Z,88.40
2022-09-28T17:05:27.497Z,88.08
2022-09-28T17:08:02.549Z,88.37
2022-09-28T17:10:28.875Z,88.00
2022-09-28T17:12:55.899Z,87.94
2022-09-28T17:15:23.571Z,88.56
2022-09-28T17:17:50.452Z,89.32
2022-09-28T17:20:26.969Z,88.50
2022-09-28T17:22:53.662Z,89.96
2022-09-28T17:25:24.515Z,89.57
2022-09-28T17:27:51.647Z,90.22
2022-09-28T17:30:20.236Z,90.01
2022-09-28T17:32:48.868Z,90.07
2022-09-28T17:35:25.309Z,90.57
2022-09-28T17:37:52.597Z,90.57
2022-09-28T17:40:25.702Z,89.78
2022-09-28T17:42:55.983Z,90.08
2022-09-28T17:45:28.626Z,89.58
2022-09-28T17:47:55.646Z,89.75
2022-09-28T17:50:25.348Z,90.90
2022-09-28T17:52:52.976Z,91.05
2022-09-28T17:55:21.746Z,91.42
2022-09-28T17:57:48.529Z,91.06
2022-09-28T18:00:16.210Z,91.25
2022-09-28T18:02:44.197Z,91.40
2022-09-28T18:05:14.574Z,91.45
2022-09-28T18:07:46.776Z,91.85
2022-09-28T18:10:16.613Z,91.89
2022-09-28T18:12:43.473Z,92.03
2022-09-28T18:15:10.777Z,92.10
2022-09-28T18:17:38.059Z,92.14
2022-09-28T18:20:06.795Z,92.56
2022-09-28T18:22:33.229Z,92.77
2022-09-28T18:24:59.686Z,92.84
2022-09-28T18:27:29.001Z,92.70
2022-09-28T18:29:55.524Z,92.66
2022-09-28T18:32:22.210Z,92.41
2022-09-28T18:34:48.607Z,93.00
2022-09-28T18:37:15.128Z,93.52
2022-09-28T18:39:41.523Z,93.62
2022-09-28T18:42:07.973Z,94.00
2022-09-28T18:44:34.328Z,94.11
2022-09-28T18:47:02.269Z,94.02
2022-09-28T18:49:30.365Z,93.96
2022-09-28T18:51:57.277Z,94.26
2022-09-28T18:54:24.402Z,94.14
2022-09-28T18:56:54.841Z,94.30
2022-09-28T18:59:21.202Z,94.45
2022-09-28T19:01:47.822Z,94.48
2022-09-28T19:04:14.360Z,94.97
2022-09-28T19:06:44.259Z,94.47
2022-09-28T19:09:10.962Z,94.94
2022-09-28T19:11:37.369Z,95.04
2022-09-28T19:14:03.822Z,95.18
2022-09-28T19:16:31.123Z,95.52
2022-09-28T19:18:58.362Z,95.53
2022-09-28T19:21:25.479Z,95.74
2022-09-28T19:23:53.543Z,95.80
2022-09-28T19:26:26.066Z,95.84
2022-09-28T19:28:52.945Z,96.53
2022-09-28T19:31:19.609Z,95.90
2022-09-28T19:33:46.669Z,96.17
2022-09-28T19:36:18.179Z,97.52
2022-09-28T19:38:45.583Z,97.40
2022-09-28T19:41:42.827Z,97.09
2022-09-28T19:44:24.291Z,97.18
2022-09-28T19:46:53.220Z,97.59
2022-09-28T19:49:20.449Z,97.41
2022-09-28T19:52:10.941Z,97.75
2022-09-28T19:54:36.753Z,97.21
2022-09-28T19:57:08.565Z,97.16
2022-09-28T19:59:37.062Z,97.56
2022-09-28T20:02:05.491Z,97.15
2022-09-28T20:04:31.879Z,97.12
2022-09-28T20:06:58.262Z,97.09
2022-09-28T20:09:24.671Z,97.02
2022-09-28T20:11:51.832Z,97.08
2022-09-28T20:14:23.361Z,97.14
2022-09-28T20:16:52.258Z,97.15
2022-09-28T20:19:21.377Z,97.28
2022-09-28T20:21:48.366Z,96.95
2022-09-28T20:24:16.155Z,97.09
2022-09-28T20:26:44.380Z,96.41
2022-09-28T20:29:10.760Z,96.49
2022-09-28T20:31:37.311Z,96.60
2022-09-28T20:34:05.022Z,96.55
2022-09-28T20:36:32.004Z,96.63
2022-09-28T20:39:03.996Z,96.87
2022-09-28T20:41:36.454Z,97.05
2022-09-28T20:44:06.131Z,97.09
2022-09-28T20:46:34.577Z,96.96
2022-09-28T20:49:01.324Z,96.83
2022-09-28T20:51:27.768Z,96.81
2022-09-28T20:53:56.215Z,96.54
2022-09-28T20:56:27.502Z,96.79
2022-09-28T20:58:55.146Z,96.65
2022-09-28T21:01:24.048Z,96.93
2022-09-28T21:04:10.417Z,96.86
2022-09-28T21:06:39.141Z,96.94
2022-09-28T21:09:07.114Z,97.00
2022-09-28T21:11:35.444Z,96.79
2022-09-28T21:14:04.463Z,97.08
2022-09-28T21:16:32.560Z,96.95
2022-09-28T21:18:59.261Z,96.89
2022-09-28T21:21:26.296Z,96.87
2022-09-28T21:23:53.636Z,96.64
2022-09-28T21:26:25.963Z,96.64
2022-09-28T21:28:53.879Z,96.71
2022-09-28T21:31:23.709Z,96.60
2022-09-28T21:33:54.042Z,96.94
2022-09-28T21:36:20.436Z,96.68
2022-09-28T21:38:46.863Z,96.56
2022-09-28T21:41:13.301Z,96.51
2022-09-28T21:43:39.799Z,96.63
2022-09-28T21:46:06.498Z,96.64
2022-09-28T21:48:33.026Z,96.81
2022-09-28T21:51:04.832Z,96.92
2022-09-28T21:53:32.983Z,96.92
2022-09-28T21:56:00.495Z,96.91
2022-09-28T21:58:29.670Z,96.78
2022-09-28T22:01:08.849Z,96.84
2022-09-28T22:03:36.573Z,96.96
2022-09-28T22:06:04.337Z,96.97
2022-09-28T22:08:30.822Z,97.15
2022-09-28T22:11:01.722Z,97.05
2022-09-28T22:13:41.325Z,97.24
2022-09-28T22:16:08.757Z,97.27
2022-09-28T22:18:35.272Z,97.18
2022-09-28T22:21:02.794Z,97.28
2022-09-28T22:23:30.303Z,97.29
2022-09-28T22:26:06.995Z,97.63
2022-09-28T22:28:33.854Z,97.50
2022-09-28T22:31:00.571Z,97.61
2022-09-28T22:33:27.318Z,97.59
2022-09-28T22:35:54.951Z,97.63
2022-09-28T22:38:23.627Z,97.81
2022-09-28T22:40:55.431Z,97.99
2022-09-28T22:43:23.414Z,97.85
2022-09-28T22:45:50.476Z,97.82
2022-09-28T22:48:17.076Z,98.04
2022-09-28T22:50:50.875Z,97.99
2022-09-28T22:53:17.942Z,98.06
2022-09-28T22:55:44.806Z,97.94
2022-09-28T22:58:11.247Z,98.03
2022-09-28T23:00:38.195Z,97.91
2022-09-28T23:03:04.812Z,97.91
2022-09-28T23:05:31.318Z,97.90
2022-09-28T23:07:57.725Z,98.26
2022-09-28T23:10:24.354Z,98.13
2022-09-28T23:12:53.420Z,98.07
2022-09-28T23:15:20.224Z,97.85
2022-09-28T23:17:51.177Z,97.82
2022-09-28T23:20:17.675Z,97.74
2022-09-28T23:22:48.308Z,97.76
2022-09-28T23:25:15.657Z,97.65
2022-09-28T23:27:46.864Z,97.81
2022-09-28T23:30:14.614Z,97.79
2022-09-28T23:32:41.696Z,97.74
2022-09-28T23:35:08.605Z,97.74
2022-09-28T23:37:35.150Z,97.96
2022-09-28T23:40:02.952Z,97.89
2022-09-28T23:42:29.361Z,97.92
2022-09-28T23:44:55.855Z,97.86
2022-09-28T23:47:22.279Z,97.87
2022-09-28T23:49:48.768Z,97.86
2022-09-28T23:52:15.194Z,97.96
2022-09-28T23:54:41.527Z,98.00
2022-09-28T23:57:07.923Z,97.95
2022-09-28T23:59:34.279Z,97.53
